Time;durP1;ratioP1;P1;durP2;ratioP2;P2;SDS_P1;SDS_P2;PMS_P1;PMS_P2;Temp;Humidity;BMP_temperature;BMP_pressure;BME280_temperature;BME280_humidity;BME280_pressure;Samples;Min_cycle;Max_cycle;Signal;HPM_P1;HPM_P2
2022/04/01 00:00:13;;;;;;;3.23;1.90;;;;;;;0.41;89.12;99213.81;5070128;28;20453;-77
2022/04/01 00:02:39;;;;;;;2.10;1.80;;;;;;;0.40;90.40;99214.88;5069807;28;20622;-77
2022/04/01 00:05:06;;;;;;;2.93;1.90;;;;;;;0.21;93.43;99219.25;5069744;28;20420;-77
2022/04/01 00:07:31;;;;;;;2.00;1.90;;;;;;;0.18;95.78;99222.50;5069603;28;20171;-77
2022/04/01 00:09:57;;;;;;;2.47;2.27;;;;;;;-0.07;99.17;99220.66;5069614;28;20456;-77
2022/04/01 00:12:22;;;;;;;1.93;1.83;;;;;;;-0.03;100.00;99219.03;5069747;28;20182;-77
2022/04/01 00:14:47;;;;;;;2.20;1.30;;;;;;;-0.07;100.00;99234.91;5069587;28;20549;-77
2022/04/01 00:17:12;;;;;;;2.97;2.67;;;;;;;-0.25;100.00;99219.38;5068305;28;20434;-77
2022/04/01 00:19:38;;;;;;;2.87;2.53;;;;;;;-0.34;100.00;99223.66;5069808;28;20261;-77
2022/04/01 00:22:05;;;;;;;2.40;2.20;;;;;;;-0.34;100.00;99218.28;5069997;28;20813;-78
2022/04/01 00:24:32;;;;;;;5.07;2.03;;;;;;;-0.35;100.00;99224.72;5069717;28;20167;-78
2022/04/01 00:26:58;;;;;;;3.17;2.93;;;;;;;-0.43;100.00;99218.03;5067821;28;21002;-77
2022/04/01 00:29:23;;;;;;;3.67;2.90;;;;;;;-0.42;100.00;99208.13;5069256;28;20464;-77
2022/04/01 00:31:58;;;;;;;2.53;1.27;;;;;;;-0.44;100.00;99213.72;5069876;28;20201;-76
2022/04/01 00:34:28;;;;;;;3.47;3.17;;;;;;;-0.46;100.00;99215.06;5073288;28;20629;-78
2022/04/01 00:36:55;;;;;;;3.70;3.30;;;;;;;-0.49;100.00;99223.66;5073218;28;20421;-78
2022/04/01 00:39:22;;;;;;;3.63;3.27;;;;;;;-0.56;100.00;99241.91;5072934;28;20444;-78
2022/04/01 00:41:49;;;;;;;2.40;2.17;;;;;;;-0.52;100.00;99210.78;5072939;28;20417;-76
2022/04/01 00:44:25;;;;;;;2.87;2.67;;;;;;;-0.53;100.00;99206.50;5073001;28;20421;-78
2022/04/01 00:47:01;;;;;;;3.73;3.43;;;;;;;-0.57;100.00;99205.44;5072621;28;20413;-78
2022/04/01 00:49:28;;;;;;;3.27;2.97;;;;;;;-0.58;100.00;99225.25;5072852;28;20458;-77
2022/04/01 00:51:56;;;;;;;4.40;3.37;;;;;;;-0.62;100.00;99206.22;5073232;28;20423;-77
2022/04/01 00:54:21;;;;;;;3.47;3.17;;;;;;;-0.60;100.00;99215.59;5072752;28;20420;-78
2022/04/01 00:56:49;;;;;;;2.97;2.67;;;;;;;-0.65;100.00;99199.53;5072510;28;20501;-78
2022/04/01 00:59:14;;;;;;;3.07;2.77;;;;;;;-0.61;100.00;99222.03;5071362;28;20562;-77
2022/04/01 01:01:43;;;;;;;2.93;2.73;;;;;;;-0.62;100.00;99219.63;5072652;28;20516;-77
2022/04/01 01:04:10;;;;;;;3.73;2.83;;;;;;;-0.66;100.00;99223.94;5072555;28;20277;-78
2022/04/01 01:06:41;;;;;;;7.03;4.03;;;;;;;-0.71;100.00;99224.75;5072344;28;20421;-78
2022/04/01 01:09:08;;;;;;;4.73;3.67;;;;;;;-0.72;100.00;99225.81;5072286;28;20464;-76
2022/04/01 01:11:36;;;;;;;11.20;4.23;;;;;;;-0.71;100.00;99230.09;5072687;28;20463;-75
2022/04/01 01:14:09;;;;;;;4.10;3.63;;;;;;;-0.76;100.00;99227.41;5072505;28;20456;-78
2022/04/01 01:16:40;;;;;;;3.00;2.70;;;;;;;-0.76;100.00;99243.50;5072303;28;20695;-77
2022/04/01 01:19:11;;;;;;;7.47;4.00;;;;;;;-0.74;100.00;99227.13;5072114;28;20452;-78
2022/04/01 01:21:38;;;;;;;3.37;3.17;;;;;;;-0.77;100.00;99217.75;5072230;28;20420;-76
2022/04/01 01:24:05;;;;;;;5.30;4.80;;;;;;;-0.86;100.00;99218.56;5072174;28;20803;-78
2022/04/01 01:26:32;;;;;;;5.27;4.87;;;;;;;-0.88;100.00;99248.28;5072078;28;20421;-78
2022/04/01 01:28:59;;;;;;;6.87;6.23;;;;;;;-0.91;100.00;99227.38;5072166;28;20534;-77
2022/04/01 01:31:25;;;;;;;7.20;4.83;;;;;;;-0.90;100.00;99215.59;5072060;28;20551;-78
2022/04/01 01:33:53;;;;;;;5.60;5.10;;;;;;;-0.96;100.00;99246.16;5072020;28;20401;-78
2022/04/01 01:36:19;;;;;;;4.07;3.60;;;;;;;-0.94;100.00;99227.94;5071988;28;20409;-77
2022/04/01 01:38:44;;;;;;;4.43;4.03;;;;;;;-0.96;100.00;99227.38;5071759;28;20435;-79
2022/04/01 01:41:09;;;;;;;12.07;4.80;;;;;;;-1.01;100.00;99212.13;5071969;28;20409;-78
2022/04/01 01:43:35;;;;;;;6.00;5.47;;;;;;;-1.04;100.00;99212.63;5071267;28;20182;-78
2022/04/01 01:46:00;;;;;;;4.40;4.03;;;;;;;-1.05;100.00;99212.88;5071277;28;20178;-77
2022/04/01 01:48:26;;;;;;;5.63;5.13;;;;;;;-1.10;100.00;99242.38;5071453;28;20171;-78
2022/04/01 01:56:19;;;;;;;4.87;4.47;;;;;;;-1.13;100.00;99216.09;5071681;28;20419;-77
2022/04/01 01:58:45;;;;;;;6.70;6.10;;;;;;;-1.15;100.00;99242.38;5071241;28;20536;-79
2022/04/01 02:01:11;;;;;;;3.87;3.57;;;;;;;-1.17;100.00;99242.59;5071493;28;20245;-79
2022/04/01 02:03:37;;;;;;;6.73;5.97;;;;;;;-1.11;100.00;99224.69;5071633;28;20231;-80
2022/04/01 02:06:03;;;;;;;5.93;5.43;;;;;;;-1.17;100.00;99217.69;5071652;28;20421;-78
2022/04/01 02:08:29;;;;;;;5.93;5.43;;;;;;;-1.19;100.00;99223.31;5071225;28;21004;-78
2022/04/01 02:10:55;;;;;;;4.67;4.00;;;;;;;-1.17;100.00;99255.19;5071158;28;20234;-80
2022/04/01 02:13:20;;;;;;;2.93;2.73;;;;;;;-1.17;100.00;99209.66;5071142;28;20459;-78
2022/04/01 02:15:45;;;;;;;6.00;5.37;;;;;;;-1.21;100.00;99212.06;5071218;28;20518;-78
2022/04/01 02:18:11;;;;;;;7.93;7.17;;;;;;;-1.23;100.00;99217.69;5071016;28;20182;-79
2022/04/01 02:20:37;;;;;;;8.40;7.60;;;;;;;-1.24;100.00;99226.00;5071484;28;20186;-80
2022/04/01 02:23:03;;;;;;;6.50;5.93;;;;;;;-1.25;100.00;99243.94;5071140;28;20180;-80
2022/04/01 02:25:30;;;;;;;7.40;6.77;;;;;;;-1.26;100.00;99212.06;5071091;28;20243;-78
2022/04/01 02:27:56;;;;;;;8.70;7.90;;;;;;;-1.27;100.00;99207.78;5070447;28;20968;-79
2022/04/01 02:30:22;;;;;;;6.90;6.40;;;;;;;-1.25;100.00;99214.47;5070876;28;20555;-82
2022/04/01 02:32:48;;;;;;;7.07;6.33;;;;;;;-1.26;100.00;99246.88;5070930;28;20182;-79
2022/04/01 02:35:13;;;;;;;8.37;7.63;;;;;;;-1.27;100.00;99234.56;5070914;28;20175;-79
2022/04/01 02:37:39;;;;;;;8.17;6.90;;;;;;;-1.25;100.00;99222.50;5070756;28;20630;-81
2022/04/01 02:40:06;;;;;;;8.30;7.10;;;;;;;-1.30;100.00;99224.38;5070800;28;20222;-78
2022/04/01 02:42:31;;;;;;;6.23;5.73;;;;;;;-1.33;100.00;99224.88;5070668;28;20416;-80
2022/04/01 02:44:57;;;;;;;7.60;5.87;;;;;;;-1.32;100.00;99211.22;5070750;28;20474;-81
2022/04/01 02:47:24;;;;;;;8.53;7.73;;;;;;;-1.36;100.00;99220.84;5070508;28;20175;-79
2022/04/01 02:49:50;;;;;;;8.13;7.43;;;;;;;-1.32;100.00;99232.66;5070731;28;20750;-82
2022/04/01 02:52:16;;;;;;;7.20;5.27;;;;;;;-1.28;100.00;99233.75;5070712;28;20518;-81
2022/04/01 02:54:42;;;;;;;9.73;7.83;;;;;;;-1.34;100.00;99239.34;5070608;28;20175;-81
2022/04/01 02:57:09;;;;;;;9.03;8.23;;;;;;;-1.33;100.00;99240.94;5069952;28;20174;-81
2022/04/01 02:59:36;;;;;;;6.13;5.60;;;;;;;-1.34;100.00;99240.16;5070553;28;20648;-81
2022/04/01 03:02:02;;;;;;;8.60;7.80;;;;;;;-1.34;100.00;99250.06;5070744;28;20815;-81
2022/04/01 03:04:28;;;;;;;5.60;5.07;;;;;;;-1.34;100.00;99268.81;5070723;28;20421;-77
2022/04/01 03:06:53;;;;;;;8.37;7.57;;;;;;;-1.36;100.00;99268.28;5070094;28;20179;-76
2022/04/01 03:09:19;;;;;;;9.03;8.23;;;;;;;-1.37;100.00;99263.97;5070230;28;20198;-81
2022/04/01 03:11:44;;;;;;;8.07;7.37;;;;;;;-1.36;100.00;99260.22;5070253;28;20175;-79
2022/04/01 03:14:11;;;;;;;9.60;8.70;;;;;;;-1.36;100.00;99263.72;5070438;28;20614;-80
2022/04/01 03:16:38;;;;;;;10.50;9.50;;;;;;;-1.41;100.00;99263.72;5070374;28;20179;-81
2022/04/01 03:19:08;;;;;;;11.27;10.23;;;;;;;-1.39;100.00;99266.13;5070055;28;20425;-80
2022/04/01 03:21:35;;;;;;;9.87;8.97;;;;;;;-1.40;100.00;99264.50;5070194;28;20420;-79
2022/04/01 03:24:01;;;;;;;8.70;7.93;;;;;;;-1.42;100.00;99259.41;5070168;28;20499;-80
2022/04/01 03:26:27;;;;;;;10.67;9.67;;;;;;;-1.42;100.00;99274.69;5070086;28;20790;-78
2022/04/01 03:28:52;;;;;;;6.17;5.60;;;;;;;-1.43;100.00;99263.16;5069620;28;20425;-79
2022/04/01 03:31:18;;;;;;;6.30;5.67;;;;;;;-1.45;100.00;99276.00;5070176;28;20175;-81
2022/04/01 03:33:43;;;;;;;6.37;5.77;;;;;;;-1.43;100.00;99278.44;5070206;28;20166;-80
2022/04/01 03:36:10;;;;;;;7.70;6.93;;;;;;;-1.48;100.00;99262.31;5070151;28;20205;-79
2022/04/01 03:38:35;;;;;;;7.93;7.13;;;;;;;-1.07;100.00;99277.47;5069645;28;20177;-81
2022/04/01 03:41:05;;;;;;;8.27;7.17;;;;;;;-1.28;100.00;99279.31;5070232;28;20495;-82
2022/04/01 03:43:34;;;;;;;11.17;9.00;;;;;;;-1.32;100.00;99261.31;5070086;28;20262;-79
2022/04/01 03:46:00;;;;;;;9.43;8.17;;;;;;;-1.35;100.00;99285.94;5069992;28;20417;-80
2022/04/01 03:48:35;;;;;;;9.77;8.87;;;;;;;-1.51;100.00;99279.72;5069497;28;20463;-82
2022/04/01 03:51:01;;;;;;;6.47;5.87;;;;;;;-1.52;100.00;99280.78;5069869;28;20525;-82
2022/04/01 03:53:29;;;;;;;11.67;9.00;;;;;;;-1.52;100.00;99275.44;5069799;28;20424;-78
2022/04/01 03:55:59;;;;;;;10.30;8.40;;;;;;;-1.54;100.00;99280.25;5069941;28;20729;-82
2022/04/01 03:58:33;;;;;;;7.80;7.00;;;;;;;-1.54;100.00;99281.06;5069497;28;20448;-84
2022/04/01 04:01:01;;;;;;;6.80;6.17;;;;;;;-1.52;100.00;99280.78;5070028;28;20483;-80
2022/04/01 04:03:29;;;;;;;9.17;8.27;;;;;;;-1.52;100.00;99283.47;5070457;28;20429;-81
2022/04/01 04:05:56;;;;;;;11.37;10.03;;;;;;;-1.53;100.00;99287.22;5069671;28;20425;-82
2022/04/01 04:08:22;;;;;;;11.43;8.13;;;;;;;-1.52;100.00;99280.78;5071693;28;20428;-83
2022/04/01 04:10:49;;;;;;;8.63;7.73;;;;;;;-1.53;100.00;99284.53;5073793;28;20472;-80
2022/04/01 04:13:16;;;;;;;5.67;3.23;;;;;;;-1.53;100.00;99276.50;5073134;28;20508;-81
2022/04/01 04:16:09;;;;;;;6.77;6.17;;;;;;;-1.58;100.00;99282.66;5073761;28;20746;-77
2022/04/01 04:18:42;;;;;;;8.73;7.87;;;;;;;-1.59;100.00;99289.06;5068120;28;20428;-74
2022/04/01 04:21:31;;;;;;;12.13;9.13;;;;;;;-1.64;100.00;99282.88;5073681;28;20424;-81
2022/04/01 04:23:59;;;;;;;9.97;7.30;;;;;;;-1.58;100.00;99287.19;5073204;28;20431;-80
2022/04/01 04:26:35;;;;;;;12.90;10.67;;;;;;;-1.68;100.00;99297.84;5073698;28;20452;-84
2022/04/01 04:29:12;;;;;;;10.37;8.63;;;;;;;-1.69;100.00;99294.38;5073788;28;20459;-82
2022/04/01 04:31:42;;;;;;;12.17;8.73;;;;;;;-1.71;100.00;99301.06;5073611;28;20417;-82
2022/04/01 04:34:10;;;;;;;10.87;7.47;;;;;;;-1.74;100.00;99298.88;5073648;28;20474;-81
2022/04/01 04:36:38;;;;;;;6.50;5.90;;;;;;;-1.76;100.00;99312.50;5073521;28;20795;-82
2022/04/01 04:39:06;;;;;;;9.17;8.07;;;;;;;-1.78;100.00;99311.97;5073239;28;20791;-78
2022/04/01 04:41:33;;;;;;;7.23;6.60;;;;;;;-1.79;100.00;99318.38;5073606;28;20967;-73
2022/04/01 04:43:59;;;;;;;6.00;5.50;;;;;;;-1.78;100.00;99319.19;5073513;28;20420;-80
2022/04/01 04:46:26;;;;;;;9.60;8.27;;;;;;;-1.77;100.00;99318.13;5073438;28;20490;-79
2022/04/01 04:48:54;;;;;;;10.47;9.47;;;;;;;-1.74;100.00;99314.94;5071175;28;20829;-79
2022/04/01 04:51:23;;;;;;;8.23;7.20;;;;;;;-1.72;100.00;99329.69;5072486;28;20457;-80
2022/04/01 04:53:49;;;;;;;9.23;8.33;;;;;;;-1.72;100.00;99328.88;5072996;28;20428;-83
2022/04/01 04:56:15;;;;;;;11.97;8.50;;;;;;;-1.70;100.00;99337.47;5073252;28;20435;-78
2022/04/01 04:58:43;;;;;;;11.77;10.03;;;;;;;-1.67;100.00;99337.75;5072827;28;20171;-81
2022/04/01 05:01:30;;;;;;;8.07;7.27;;;;;;;-1.68;100.00;99336.13;5073106;28;20217;-76
2022/04/01 05:04:17;;;;;;;27.60;13.33;;;;;;;-1.67;100.00;99340.44;5072934;28;20409;-83
2022/04/01 05:06:59;;;;;;;11.80;9.50;;;;;;;-1.68;100.00;99341.50;5073135;28;20508;-82
2022/04/01 05:09:33;;;;;;;10.63;9.33;;;;;;;-1.65;100.00;99343.66;5073325;28;20424;-87
2022/04/01 05:12:07;;;;;;;10.53;9.00;;;;;;;-1.63;100.00;99343.38;5073075;28;20599;-80
2022/04/01 05:14:41;;;;;;;8.50;6.60;;;;;;;-1.62;100.00;99353.84;5072568;28;20768;-86
2022/04/01 05:17:35;;;;;;;7.13;5.90;;;;;;;-1.64;100.00;99352.47;5074190;28;20416;-87
2022/04/01 05:20:02;;;;;;;8.97;8.10;;;;;;;-1.65;100.00;99361.59;5071924;28;20880;-83
2022/04/01 05:22:54;;;;;;;6.53;5.43;;;;;;;-1.67;100.00;99366.41;5072778;28;20417;-87
2022/04/01 05:25:21;;;;;;;8.97;7.97;;;;;;;-1.71;100.00;99363.44;5068371;28;20429;-86
2022/04/01 05:27:49;;;;;;;8.03;7.30;;;;;;;-1.73;100.00;99364.75;5073177;28;20412;-85
2022/04/01 05:30:20;;;;;;;5.97;5.47;;;;;;;-1.71;100.00;99370.66;5072803;28;20431;-83
2022/04/01 05:32:51;;;;;;;4.33;3.97;;;;;;;-1.69;100.00;99374.69;5073268;28;20405;-83
2022/04/01 05:35:18;;;;;;;5.70;5.17;;;;;;;-1.71;100.00;99371.47;5072846;28;20433;-86
2022/04/01 05:37:44;;;;;;;10.67;7.50;;;;;;;-1.71;100.00;99379.50;5072605;28;20504;-85
2022/04/01 05:40:11;;;;;;;9.33;7.07;;;;;;;-1.72;100.00;99374.41;5072338;28;20468;-84
2022/04/01 05:42:38;;;;;;;8.23;5.97;;;;;;;-1.73;100.00;99370.91;5072460;28;20428;-83
2022/04/01 05:45:04;;;;;;;10.53;9.43;;;;;;;-1.78;100.00;99384.25;5072281;28;20496;-75
2022/04/01 05:47:30;;;;;;;9.23;8.20;;;;;;;-1.73;100.00;99391.53;5072267;28;20817;-73
2022/04/01 05:49:58;;;;;;;5.97;5.07;;;;;;;-1.73;100.00;99397.69;5072276;28;20202;-74
2022/04/01 05:52:24;;;;;;;7.00;4.70;;;;;;;-1.76;100.00;99384.78;5071004;28;20424;-74
2022/04/01 05:54:50;;;;;;;9.13;7.07;;;;;;;-1.78;100.00;99392.28;5072286;28;20417;-73
2022/04/01 05:57:18;;;;;;;10.70;7.30;;;;;;;-1.83;100.00;99387.69;5072039;28;20253;-78
2022/04/01 05:59:45;;;;;;;9.60;6.27;;;;;;;-1.85;100.00;99399.72;5072196;28;20449;-76
2022/04/01 06:02:13;;;;;;;12.47;7.67;;;;;;;-1.89;100.00;99391.38;5072123;28;20511;-76
2022/04/01 06:04:41;;;;;;;10.13;9.13;;;;;;;-1.97;100.00;99396.41;5071790;28;20776;-74
2022/04/01 06:07:10;;;;;;;8.10;6.73;;;;;;;-1.95;100.00;99405.81;5071758;28;20413;-74
2022/04/01 06:09:43;;;;;;;9.20;6.53;;;;;;;-1.94;100.00;99407.41;5072194;28;20450;-74
2022/04/01 06:12:27;;;;;;;9.27;8.00;;;;;;;-1.99;100.00;99410.06;5071839;28;20405;-79
2022/04/01 06:15:07;;;;;;;24.00;11.00;;;;;;;-2.00;100.00;99421.81;5071564;28;20405;-77
2022/04/01 06:17:37;;;;;;;8.90;7.50;;;;;;;-1.98;100.00;99417.03;5071503;28;20393;-80
2022/04/01 06:20:07;;;;;;;9.13;7.70;;;;;;;-1.97;100.00;99420.50;5071701;28;20452;-76
2022/04/01 06:22:36;;;;;;;10.47;8.53;;;;;;;-1.97;100.00;99417.81;5071657;28;20488;-76
2022/04/01 06:25:11;;;;;;;7.60;6.67;;;;;;;-1.94;100.00;99439.53;5070217;28;20777;-76
2022/04/01 06:27:54;;;;;;;7.13;6.33;;;;;;;-1.93;100.00;99430.44;5069444;28;20440;-74
2022/04/01 06:30:23;;;;;;;7.67;6.87;;;;;;;-1.98;100.00;99435.75;5055365;28;20475;-80
2022/04/01 06:32:52;;;;;;;12.63;7.80;;;;;;;-1.91;100.00;99439.00;5070743;28;20425;-78
2022/04/01 06:35:19;;;;;;;6.63;5.93;;;;;;;-1.98;100.00;99434.94;5071208;28;20417;-76
2022/04/01 06:38:03;;;;;;;11.53;6.57;;;;;;;-1.92;100.00;99449.97;5071262;28;20448;-75
2022/04/01 06:40:49;;;;;;;8.07;7.27;;;;;;;-1.95;100.00;99451.28;5070892;28;20617;-81
2022/04/01 06:43:16;;;;;;;10.47;9.00;;;;;;;-1.96;100.00;99463.06;5071304;28;20417;-75
2022/04/01 06:45:42;;;;;;;8.70;7.87;;;;;;;-2.00;100.00;99461.16;5071288;28;20417;-74
2022/04/01 06:48:08;;;;;;;7.23;6.47;;;;;;;-1.96;100.00;99454.22;5070523;28;20421;-77
2022/04/01 06:50:34;;;;;;;12.00;10.90;;;;;;;-1.94;100.00;99450.22;5070683;28;20503;-80
2022/04/01 06:52:59;;;;;;;14.97;7.23;;;;;;;-1.92;100.00;99458.00;5069963;28;20948;-82
2022/04/01 06:55:25;;;;;;;10.87;9.50;;;;;;;-1.98;100.00;99449.13;5071147;28;20205;-79
2022/04/01 06:57:50;;;;;;;9.77;8.73;;;;;;;-2.00;100.00;99461.16;5070606;28;20261;-82
2022/04/01 07:00:16;;;;;;;6.83;6.17;;;;;;;-1.96;100.00;99465.75;5070781;28;20259;-84
2022/04/01 07:02:42;;;;;;;8.70;7.47;;;;;;;-1.94;100.00;99477.00;5071380;28;20278;-79
2022/04/01 07:05:11;;;;;;;9.63;8.33;;;;;;;-1.86;100.00;99478.41;5071125;28;20459;-81
2022/04/01 07:07:38;;;;;;;8.47;7.57;;;;;;;-1.93;100.00;99477.81;5071292;28;20216;-81
2022/04/01 07:10:05;;;;;;;7.53;6.73;;;;;;;-1.96;100.00;99472.97;5071205;28;20979;-83
2022/04/01 07:12:32;;;;;;;8.37;6.10;;;;;;;-1.93;100.00;99473.25;5071368;28;20413;-77
2022/04/01 07:14:59;;;;;;;10.93;9.00;;;;;;;-1.99;100.00;99476.16;5071124;28;20412;-83
2022/04/01 07:17:25;;;;;;;9.10;8.23;;;;;;;-1.93;100.00;99475.13;5070449;28;20445;-81
2022/04/01 07:19:51;;;;;;;9.00;7.67;;;;;;;-1.95;100.00;99478.06;5068758;28;20503;-86
2022/04/01 07:22:17;;;;;;;8.50;7.47;;;;;;;-2.01;100.00;99481.75;5070440;28;20432;-83
2022/04/01 07:24:42;;;;;;;9.87;8.60;;;;;;;-2.00;100.00;99483.38;5070761;28;20185;-85
2022/04/01 07:27:08;;;;;;;11.90;8.33;;;;;;;-1.97;100.00;99482.06;5070687;28;20170;-81
2022/04/01 07:29:34;;;;;;;5.17;4.77;;;;;;;-1.89;100.00;99485.06;5069535;28;20181;-85
2022/04/01 07:34:44;;;;;;;6.27;5.10;;;;;;;-1.86;100.00;99489.13;5070940;28;20205;-86
2022/04/01 07:37:10;;;;;;;21.80;9.50;;;;;;;-1.85;100.00;99493.41;5070623;28;20433;-88
2022/04/01 07:39:36;;;;;;;12.03;10.63;;;;;;;-1.92;100.00;99482.09;5070564;28;20521;-86
2022/04/01 07:42:02;;;;;;;3.70;3.47;;;;;;;-1.71;100.00;99497.31;5072124;28;20420;-86
2022/04/01 07:44:28;;;;;;;5.77;5.27;;;;;;;-1.65;100.00;99500.81;5074953;28;20732;-85
2022/04/01 07:46:54;;;;;;;7.60;6.80;;;;;;;-1.78;100.00;99491.31;5074774;28;20513;-85
2022/04/01 07:49:20;;;;;;;7.33;5.77;;;;;;;-1.71;100.00;99491.13;5074980;28;20220;-81
2022/04/01 07:51:45;;;;;;;9.67;7.50;;;;;;;-1.74;100.00;99505.00;5075139;28;20457;-79
2022/04/01 07:54:12;;;;;;;8.37;7.37;;;;;;;-1.69;100.00;99505.06;5074586;28;20644;-80
2022/04/01 07:56:40;;;;;;;7.23;6.50;;;;;;;-1.67;100.00;99516.34;5074483;28;20615;-77
2022/04/01 07:59:06;;;;;;;9.00;7.93;;;;;;;-1.60;100.00;99517.72;5074325;28;20427;-80
2022/04/01 08:01:31;;;;;;;10.30;9.23;;;;;;;-1.62;100.00;99508.34;5074472;28;21029;-80
2022/04/01 08:03:56;;;;;;;9.37;8.43;;;;;;;-1.61;100.00;99508.06;5074430;28;20224;-80
2022/04/01 08:06:22;;;;;;;9.73;6.13;;;;;;;-1.52;100.00;99511.91;5074374;28;20174;-80
2022/04/01 08:08:47;;;;;;;9.43;8.43;;;;;;;-1.53;100.00;99510.31;5071847;28;20630;-79
2022/04/01 08:11:13;;;;;;;15.27;10.73;;;;;;;-1.57;100.00;99513.75;5054065;28;20194;-79
2022/04/01 08:13:38;;;;;;;12.67;9.77;;;;;;;-1.51;100.00;99512.72;5054216;28;20186;-81
2022/04/01 08:16:04;;;;;;;13.27;7.83;;;;;;;-1.49;100.00;99513.28;5060717;28;20170;-80
2022/04/01 08:18:29;;;;;;;12.43;8.27;;;;;;;-1.43;100.00;99511.47;5074078;28;20198;-81
2022/04/01 08:20:55;;;;;;;7.40;6.70;;;;;;;-1.27;100.00;99515.88;5074004;28;20202;-82
2022/04/01 08:23:21;;;;;;;12.37;10.83;;;;;;;-1.26;100.00;99518.28;5073992;28;20174;-78
2022/04/01 08:25:47;;;;;;;10.37;8.10;;;;;;;-1.10;100.00;99513.84;5073732;28;20413;-80
2022/04/01 08:28:12;;;;;;;11.60;7.87;;;;;;;-0.92;100.00;99510.75;5073737;28;20189;-81
2022/04/01 08:30:39;;;;;;;12.17;6.63;;;;;;;-0.86;100.00;99525.00;5072459;28;20509;-81
2022/04/01 08:33:05;;;;;;;6.43;5.83;;;;;;;-0.75;100.00;99521.28;5074255;28;20194;-76
2022/04/01 08:35:31;;;;;;;8.67;7.87;;;;;;;-0.69;100.00;99519.47;5073733;28;20847;-82
2022/04/01 08:37:58;;;;;;;15.27;9.67;;;;;;;-0.60;99.25;99524.06;5073783;28;20167;-81
2022/04/01 08:40:24;;;;;;;12.60;8.70;;;;;;;-0.40;98.09;99527.91;5073246;28;20515;-77
2022/04/01 08:42:49;;;;;;;10.13;9.07;;;;;;;-0.38;94.75;99536.50;5073855;28;20424;-78
2022/04/01 08:45:19;;;;;;;9.37;7.43;;;;;;;-0.15;92.54;99537.94;5076598;28;20417;-81
2022/04/01 08:47:46;;;;;;;15.83;9.30;;;;;;;-0.17;91.22;99534.69;5073453;28;20224;-81
2022/04/01 08:50:11;;;;;;;9.37;7.47;;;;;;;-0.11;88.67;99539.84;5073911;28;20436;-83
2022/04/01 08:52:38;;;;;;;11.50;8.77;;;;;;;0.03;88.80;99536.66;5073227;28;20417;-84
2022/04/01 08:55:09;;;;;;;12.80;10.40;;;;;;;0.04;87.24;99535.59;5072939;28;20189;-82
2022/04/01 08:57:42;;;;;;;10.77;9.27;;;;;;;0.10;86.63;99531.84;5073342;28;20429;-82
2022/04/01 09:00:13;;;;;;;4.27;3.87;;;;;;;0.17;85.25;99545.84;5073332;28;20823;-84
2022/04/01 09:02:39;;;;;;;9.33;8.43;;;;;;;0.21;85.42;99563.81;5073237;28;20451;-85
2022/04/01 09:05:06;;;;;;;10.63;8.27;;;;;;;0.32;85.86;99567.34;5073135;28;20911;-84
2022/04/01 09:07:32;;;;;;;12.63;8.77;;;;;;;0.33;85.43;99557.41;5073082;28;20421;-85
2022/04/01 09:10:08;;;;;;;7.20;6.50;;;;;;;0.36;85.96;99563.06;5073152;28;20420;-81
2022/04/01 09:12:34;;;;;;;10.23;7.67;;;;;;;0.43;85.25;99563.59;5073412;28;20223;-81
2022/04/01 09:15:01;;;;;;;15.90;7.13;;;;;;;0.42;84.20;99559.28;5073081;28;20846;-81
2022/04/01 09:17:41;;;;;;;4.77;4.37;;;;;;;0.58;83.86;99560.16;5072881;28;20496;-83
2022/04/01 09:20:07;;;;;;;5.27;4.77;;;;;;;0.68;84.13;99570.88;5072904;28;20468;-81
2022/04/01 09:22:33;;;;;;;5.27;3.00;;;;;;;0.65;82.24;99571.44;5072933;28;20470;-81
2022/04/01 09:25:10;;;;;;;2.57;2.37;;;;;;;0.65;80.65;99568.75;5072829;28;20421;-81
2022/04/01 09:27:46;;;;;;;3.20;3.00;;;;;;;0.69;81.13;99561.75;5072362;28;20189;-81
2022/04/01 09:30:17;;;;;;;3.43;2.50;;;;;;;0.71;79.10;99558.78;5072619;28;20428;-79
2022/04/01 09:32:44;;;;;;;3.10;2.70;;;;;;;0.77;78.89;99563.09;5072311;28;20409;-81
2022/04/01 09:35:11;;;;;;;4.13;2.77;;;;;;;0.76;78.46;99550.75;5072321;28;20502;-82
2022/04/01 09:37:41;;;;;;;2.60;2.33;;;;;;;0.81;78.57;99559.59;5071976;28;20915;-80
2022/04/01 09:40:08;;;;;;;3.23;2.97;;;;;;;0.87;77.81;99553.16;5071726;28;20864;-81
2022/04/01 09:42:34;;;;;;;2.80;2.50;;;;;;;1.00;78.77;99557.16;5072204;28;20912;-80
2022/04/01 09:45:00;;;;;;;3.87;3.40;;;;;;;0.94;76.64;99552.06;5072048;28;20424;-80
2022/04/01 09:47:26;;;;;;;3.83;3.40;;;;;;;1.05;77.47;99565.25;5071833;28;20205;-79
2022/04/01 09:49:54;;;;;;;2.50;2.30;;;;;;;1.04;76.06;99554.78;5072127;28;20927;-79
2022/04/01 09:52:22;;;;;;;8.43;2.73;;;;;;;1.14;77.16;99563.59;5071921;28;20537;-80
2022/04/01 09:54:53;;;;;;;2.43;2.23;;;;;;;1.13;77.23;99562.00;5071918;28;20262;-76
2022/04/01 09:57:21;;;;;;;2.30;2.00;;;;;;;1.12;75.26;99551.50;5070395;28;20783;-80
2022/04/01 09:59:49;;;;;;;3.20;2.67;;;;;;;1.16;76.18;99561.47;5071681;28;20468;-80
2022/04/01 10:02:15;;;;;;;5.17;2.90;;;;;;;1.16;75.44;99556.09;5071798;28;20904;-84
2022/04/01 10:04:41;;;;;;;4.70;2.20;;;;;;;1.19;73.78;99541.28;5069853;28;20529;-82
2022/04/01 10:07:07;;;;;;;2.73;2.53;;;;;;;1.25;73.88;99548.28;5071114;28;20721;-78
2022/04/01 10:09:34;;;;;;;3.73;3.43;;;;;;;1.40;75.40;99555.50;5068774;28;20182;-84
2022/04/01 10:12:03;;;;;;;2.70;1.90;;;;;;;1.39;73.11;99546.63;5071680;28;20416;-82
2022/04/01 10:14:31;;;;;;;2.73;2.53;;;;;;;1.44;72.91;99540.41;5063076;28;20167;-83
2022/04/01 10:17:00;;;;;;;1.70;1.40;;;;;;;1.49;73.82;99546.59;5071298;28;20680;-74
2022/04/01 10:19:30;;;;;;;1.93;1.73;;;;;;;1.47;72.34;99546.06;5071083;28;20202;-83
2022/04/01 10:21:56;;;;;;;2.80;2.33;;;;;;;1.48;71.32;99536.13;5068478;28;20511;-84
2022/04/01 10:24:31;;;;;;;1.83;1.30;;;;;;;1.51;68.70;99551.72;5070067;28;20304;-86
2022/04/01 10:27:21;;;;;;;2.07;1.60;;;;;;;1.55;68.68;99563.53;5071319;28;20186;-85
2022/04/01 10:29:47;;;;;;;2.13;2.03;;;;;;;1.60;69.34;99560.03;5071514;28;20417;-82
2022/04/01 10:32:44;;;;;;;4.57;1.93;;;;;;;1.64;68.94;99556.53;5071481;28;20425;-81
2022/04/01 10:35:21;;;;;;;3.27;2.70;;;;;;;1.72;68.53;99555.13;5071513;28;21153;-85
2022/04/01 10:37:52;;;;;;;3.03;2.73;;;;;;;1.81;68.84;99553.50;5070934;28;20178;-85
2022/04/01 10:40:18;;;;;;;6.00;2.37;;;;;;;1.84;68.20;99555.63;5070509;28;20210;-84
2022/04/01 10:42:45;;;;;;;2.97;2.77;;;;;;;1.90;68.13;99553.75;5071281;28;20175;-86
2022/04/01 10:45:16;;;;;;;1.60;1.50;;;;;;;1.99;67.52;99547.47;5071025;28;20666;-83
2022/04/01 10:53:45;;;;;;;2.47;2.20;;;;;;;2.07;66.14;99564.97;5071332;28;20185;-86
2022/04/01 10:56:26;;;;;;;2.40;2.20;;;;;;;2.12;66.22;99556.84;5070884;28;20676;-78
2022/04/01 10:59:10;;;;;;;2.70;1.80;;;;;;;2.21;66.14;99575.94;5070802;28;20257;-83
2022/04/01 11:01:54;;;;;;;1.60;1.40;;;;;;;2.18;65.40;99566.53;5069462;28;20193;-79
2022/04/01 11:04:22;;;;;;;5.27;1.67;;;;;;;2.22;64.86;99578.38;5070662;28;20231;-75
2022/04/01 11:06:54;;;;;;;3.43;1.93;;;;;;;2.37;65.79;99582.88;5070440;28;20182;-81
2022/04/01 11:09:51;;;;;;;3.13;1.83;;;;;;;2.36;65.39;99576.66;5070729;28;20538;-82
2022/04/01 11:12:21;;;;;;;1.63;1.53;;;;;;;2.36;63.84;99581.25;5070736;28;20517;-84
2022/04/01 11:17:25;;;;;;;2.53;1.70;;;;;;;2.36;63.19;99581.25;5070125;28;20210;-85
2022/04/01 11:20:12;;;;;;;2.07;1.70;;;;;;;2.38;62.25;99573.69;5070601;28;20206;-83
2022/04/01 11:22:43;;;;;;;2.47;2.03;;;;;;;2.38;62.75;99571.81;5070724;28;20212;-86
2022/04/01 11:25:33;;;;;;;1.70;1.60;;;;;;;2.43;61.40;99578.25;5070373;28;20170;-83
2022/04/01 11:28:14;;;;;;;1.57;1.47;;;;;;;2.48;61.10;99580.91;5070071;28;20198;-77
2022/04/01 11:30:43;;;;;;;1.80;1.70;;;;;;;2.55;61.66;99582.19;5070473;28;20197;-82
2022/04/01 11:33:14;;;;;;;3.07;2.10;;;;;;;2.57;61.90;99576.53;5070389;28;20174;-82
2022/04/01 11:35:44;;;;;;;2.53;2.27;;;;;;;2.59;62.01;99568.97;5070312;28;20170;-84
2022/04/01 11:38:13;;;;;;;2.00;1.80;;;;;;;2.73;61.54;99551.06;5069878;28;20253;-84
2022/04/01 11:40:40;;;;;;;2.20;1.97;;;;;;;2.72;62.56;99556.75;5070322;28;20263;-79
2022/04/01 11:43:10;;;;;;;2.70;2.50;;;;;;;2.59;61.44;99545.50;5070381;28;20204;-81
2022/04/01 11:45:38;;;;;;;1.60;1.50;;;;;;;2.59;60.41;99550.88;5068965;28;20183;-79
2022/04/01 11:48:50;;;;;;;1.70;1.60;;;;;;;2.69;60.46;99553.53;5068644;28;20538;-83
2022/04/01 11:51:21;;;;;;;3.17;1.30;;;;;;;2.72;58.35;99548.66;5068223;28;20190;-79